sensor_id;sensor_type;location;lat;lon;timestamp;temperature;humidity
20398;DHT22;10358;49.590;11.030;2024-01-15T00:00:26;-3.20;99.90
20398;DHT22;10358;49.590;11.030;2024-01-15T00:02:51;-3.30;99.90
20398;DHT22;10358;49.590;11.030;2024-01-15T00:05:17;-3.20;99.90
20398;DHT22;10358;49.590;11.030;2024-01-15T00:07:42;-3.30;99.90
20398;DHT22;10358;49.590;11.030;2024-01-15T00:10:08;-3.30;99.90
20398;DHT22;10358;49.590;11.030;2024-01-15T00:12:33;-3.30;99.90
20398;DHT22;10358;49.590;11.030;2024-01-15T00:14:59;-3.30;99.90
20398;DHT22;10358;49.590;11.030;2024-01-15T00:17:25;-3.30;99.90
20398;DHT22;10358;49.590;11.030;2024-01-15T00:19:50;-3.30;99.90
20398;DHT22;10358;49.590;11.030;2024-01-15T00:22:16;-3.30;99.90
20398;DHT22;10358;49.590;11.030;2024-01-15T00:24:41;-3.30;99.90
20398;DHT22;10358;49.590;11.030;2024-01-15T00:27:09;-3.30;99.90
20398;DHT22;10358;49.590;11.030;2024-01-15T00:29:34;-3.30;99.90
20398;DHT22;10358;49.590;11.030;2024-01-15T00:32:00;-3.30;99.90
20398;DHT22;10358;49.590;11.030;2024-01-15T00:34:25;-3.30;99.90
20398;DHT22;10358;49.590;11.030;2024-01-15T00:36:51;-3.30;99.90
20398;DHT22;10358;49.590;11.030;2024-01-15T00:39:16;-3.30;99.90
20398;DHT22;10358;49.590;11.030;2024-01-15T00:41:42;-3.20;99.90
20398;DHT22;10358;49.590;11.030;2024-01-15T00:44:07;-3.20;99.90
20398;DHT22;10358;49.590;11.030;2024-01-15T00:46:33;-3.20;99.90
20398;DHT22;10358;49.590;11.030;2024-01-15T00:49:06;-3.20;99.90
20398;DHT22;10358;49.590;11.030;2024-01-15T00:51:31;-3.20;99.90
20398;DHT22;10358;49.590;11.030;2024-01-15T00:53:57;-3.20;99.90
20398;DHT22;10358;49.590;11.030;2024-01-15T00:56:22;-3.20;99.90
20398;DHT22;10358;49.590;11.030;2024-01-15T00:58:48;-3.20;99.90
20398;DHT22;10358;49.590;11.030;2024-01-15T01:01:13;-3.20;99.90
20398;DHT22;10358;49.590;11.030;2024-01-15T01:03:39;-3.20;99.90
20398;DHT22;10358;49.590;11.030;2024-01-15T01:06:04;-3.20;99.90
20398;DHT22;10358;49.590;11.030;2024-01-15T01:08:30;-3.10;99.90
20398;DHT22;10358;49.590;11.030;2024-01-15T01:10:55;-3.10;99.90
20398;DHT22;10358;49.590;11.030;2024-01-15T01:13:22;-3.10;99.90
20398;DHT22;10358;49.590;11.030;2024-01-15T01:15:48;-3.10;99.90
20398;DHT22;10358;49.590;11.030;2024-01-15T01:18:13;-3.10;99.90
20398;DHT22;10358;49.590;11.030;2024-01-15T01:20:39;-3.10;99.90
20398;DHT22;10358;49.590;11.030;2024-01-15T01:23:04;-3.00;99.90
20398;DHT22;10358;49.590;11.030;2024-01-15T01:25:30;-3.00;99.90
20398;DHT22;10358;49.590;11.030;2024-01-15T01:27:55;-3.00;99.90
20398;DHT22;10358;49.590;11.030;2024-01-15T01:30:21;-3.00;99.90
20398;DHT22;10358;49.590;11.030;2024-01-15T01:32:46;-3.00;99.90
20398;DHT22;10358;49.590;11.030;2024-01-15T01:35:12;-3.00;99.90
20398;DHT22;10358;49.590;11.030;2024-01-15T01:37:38;-2.90;99.90
20398;DHT22;10358;49.590;11.030;2024-01-15T01:40:04;-2.90;99.90
20398;DHT22;10358;49.590;11.030;2024-01-15T01:42:30;-2.90;99.90
20398;DHT22;10358;49.590;11.030;2024-01-15T01:44:56;-2.90;99.90
20398;DHT22;10358;49.590;11.030;2024-01-15T01:47:21;-2.90;99.90
20398;DHT22;10358;49.590;11.030;2024-01-15T01:49:47;-2.80;99.90
20398;DHT22;10358;49.590;11.030;2024-01-15T01:52:13;-2.80;99.90
20398;DHT22;10358;49.590;11.030;2024-01-15T01:54:40;-2.80;99.90
20398;DHT22;10358;49.590;11.030;2024-01-15T01:57:07;-2.80;99.90
20398;DHT22;10358;49.590;11.030;2024-01-15T01:59:34;-2.80;99.90
20398;DHT22;10358;49.590;11.030;2024-01-15T02:02:00;-2.80;99.90
20398;DHT22;10358;49.590;11.030;2024-01-15T02:04:28;-2.80;99.90
20398;DHT22;10358;49.590;11.030;2024-01-15T02:06:53;-2.70;99.90
20398;DHT22;10358;49.590;11.030;2024-01-15T02:09:19;-2.70;99.90
20398;DHT22;10358;49.590;11.030;2024-01-15T02:11:47;-2.70;99.90
20398;DHT22;10358;49.590;11.030;2024-01-15T02:14:14;-2.70;99.90
20398;DHT22;10358;49.590;11.030;2024-01-15T02:16:39;-2.70;99.90
20398;DHT22;10358;49.590;11.030;2024-01-15T02:19:06;-2.70;99.90
20398;DHT22;10358;49.590;11.030;2024-01-15T02:21:32;-2.60;99.90
20398;DHT22;10358;49.590;11.030;2024-01-15T02:23:58;-2.60;99.90
20398;DHT22;10358;49.590;11.030;2024-01-15T02:26:24;-2.60;99.90
20398;DHT22;10358;49.590;11.030;2024-01-15T02:28:50;-2.60;99.90
20398;DHT22;10358;49.590;11.030;2024-01-15T02:31:16;-2.60;99.90
20398;DHT22;10358;49.590;11.030;2024-01-15T02:33:42;-2.50;99.90
20398;DHT22;10358;49.590;11.030;2024-01-15T02:36:09;-2.50;99.90
20398;DHT22;10358;49.590;11.030;2024-01-15T02:38:34;-2.50;99.90
20398;DHT22;10358;49.590;11.030;2024-01-15T02:41:00;-2.50;99.90
20398;DHT22;10358;49.590;11.030;2024-01-15T02:43:25;-2.50;99.90
20398;DHT22;10358;49.590;11.030;2024-01-15T02:45:52;-2.40;99.90
20398;DHT22;10358;49.590;11.030;2024-01-15T02:48:18;-2.50;99.90
20398;DHT22;10358;49.590;11.030;2024-01-15T02:50:43;-2.40;99.90
20398;DHT22;10358;49.590;11.030;2024-01-15T02:53:09;-2.40;99.90
20398;DHT22;10358;49.590;11.030;2024-01-15T02:55:34;-2.40;99.90
20398;DHT22;10358;49.590;11.030;2024-01-15T02:58:00;-2.40;99.90
20398;DHT22;10358;49.590;11.030;2024-01-15T03:00:25;-2.40;99.90
20398;DHT22;10358;49.590;11.030;2024-01-15T03:02:51;-2.40;99.90
20398;DHT22;10358;49.590;11.030;2024-01-15T03:05:17;-2.40;99.90
20398;DHT22;10358;49.590;11.030;2024-01-15T03:07:44;-2.40;99.90
20398;DHT22;10358;49.590;11.030;2024-01-15T03:10:09;-2.30;99.90
20398;DHT22;10358;49.590;11.030;2024-01-15T03:12:35;-2.30;99.90
20398;DHT22;10358;49.590;11.030;2024-01-15T03:15:01;-2.30;99.90
20398;DHT22;10358;49.590;11.030;2024-01-15T03:17:26;-2.30;99.90
20398;DHT22;10358;49.590;11.030;2024-01-15T03:19:52;-2.30;99.90
20398;DHT22;10358;49.590;11.030;2024-01-15T03:22:17;-2.20;99.90
20398;DHT22;10358;49.590;11.030;2024-01-15T03:24:44;-2.20;99.90
20398;DHT22;10358;49.590;11.030;2024-01-15T03:27:09;-2.20;99.90
20398;DHT22;10358;49.590;11.030;2024-01-15T03:29:35;-2.20;99.90
20398;DHT22;10358;49.590;11.030;2024-01-15T03:32:01;-2.20;99.90
20398;DHT22;10358;49.590;11.030;2024-01-15T03:34:26;-2.20;99.90
20398;DHT22;10358;49.590;11.030;2024-01-15T03:36:52;-2.20;99.90
20398;DHT22;10358;49.590;11.030;2024-01-15T03:39:17;-2.10;99.90
20398;DHT22;10358;49.590;11.030;2024-01-15T03:41:44;-2.20;99.90
20398;DHT22;10358;49.590;11.030;2024-01-15T03:44:10;-2.10;99.90
20398;DHT22;10358;49.590;11.030;2024-01-15T03:46:35;-2.10;99.90
20398;DHT22;10358;49.590;11.030;2024-01-15T03:49:01;-2.10;99.90
20398;DHT22;10358;49.590;11.030;2024-01-15T03:51:27;-2.10;99.90
20398;DHT22;10358;49.590;11.030;2024-01-15T03:53:52;-2.10;99.90
20398;DHT22;10358;49.590;11.030;2024-01-15T03:56:18;-2.10;99.90
20398;DHT22;10358;49.590;11.030;2024-01-15T03:58:44;-2.10;99.90
20398;DHT22;10358;49.590;11.030;2024-01-15T04:01:10;-2.00;99.90
20398;DHT22;10358;49.590;11.030;2024-01-15T04:03:36;-2.00;99.90
20398;DHT22;10358;49.590;11.030;2024-01-15T04:06:02;-2.00;99.90
20398;DHT22;10358;49.590;11.030;2024-01-15T04:08:28;-2.00;99.90
20398;DHT22;10358;49.590;11.030;2024-01-15T04:10:53;-2.00;99.90
20398;DHT22;10358;49.590;11.030;2024-01-15T04:13:20;-2.00;99.90
20398;DHT22;10358;49.590;11.030;2024-01-15T04:15:45;-1.90;99.90
20398;DHT22;10358;49.590;11.030;2024-01-15T04:18:12;-1.90;99.90
20398;DHT22;10358;49.590;11.030;2024-01-15T04:20:38;-1.90;99.90
20398;DHT22;10358;49.590;11.030;2024-01-15T04:23:04;-1.80;99.90
20398;DHT22;10358;49.590;11.030;2024-01-15T04:25:30;-1.80;99.90
20398;DHT22;10358;49.590;11.030;2024-01-15T04:27:55;-1.80;99.90
20398;DHT22;10358;49.590;11.030;2024-01-15T04:30:21;-1.80;99.90
20398;DHT22;10358;49.590;11.030;2024-01-15T04:32:46;-1.80;99.90
20398;DHT22;10358;49.590;11.030;2024-01-15T04:35:12;-1.80;99.90
20398;DHT22;10358;49.590;11.030;2024-01-15T04:37:38;-1.70;99.90
20398;DHT22;10358;49.590;11.030;2024-01-15T04:40:05;-1.70;99.90
20398;DHT22;10358;49.590;11.030;2024-01-15T04:42:30;-1.70;99.90
20398;DHT22;10358;49.590;11.030;2024-01-15T04:44:56;-1.70;99.90
20398;DHT22;10358;49.590;11.030;2024-01-15T04:47:22;-1.70;99.90
20398;DHT22;10358;49.590;11.030;2024-01-15T04:49:47;-1.60;99.90
20398;DHT22;10358;49.590;11.030;2024-01-15T04:52:14;-1.60;99.90
20398;DHT22;10358;49.590;11.030;2024-01-15T04:54:40;-1.60;99.90
20398;DHT22;10358;49.590;11.030;2024-01-15T04:57:05;-1.60;99.90
20398;DHT22;10358;49.590;11.030;2024-01-15T04:59:31;-1.60;99.90
20398;DHT22;10358;49.590;11.030;2024-01-15T05:01:57;-1.60;99.90
20398;DHT22;10358;49.590;11.030;2024-01-15T05:04:22;-1.60;99.90
20398;DHT22;10358;49.590;11.030;2024-01-15T05:06:49;-1.60;99.90
20398;DHT22;10358;49.590;11.030;2024-01-15T05:09:15;-1.60;99.90
20398;DHT22;10358;49.590;11.030;2024-01-15T05:11:40;-1.60;99.90
20398;DHT22;10358;49.590;11.030;2024-01-15T05:14:06;-1.60;99.90
20398;DHT22;10358;49.590;11.030;2024-01-15T05:16:31;-1.60;99.90
20398;DHT22;10358;49.590;11.030;2024-01-15T05:18:57;-1.60;99.90
20398;DHT22;10358;49.590;11.030;2024-01-15T05:21:22;-1.60;99.90
20398;DHT22;10358;49.590;11.030;2024-01-15T05:23:48;-1.60;99.90
20398;DHT22;10358;49.590;11.030;2024-01-15T05:26:14;-1.50;99.90
20398;DHT22;10358;49.590;11.030;2024-01-15T05:28:42;-1.50;99.90
20398;DHT22;10358;49.590;11.030;2024-01-15T05:31:08;-1.50;99.90
20398;DHT22;10358;49.590;11.030;2024-01-15T05:33:34;-1.60;99.90
20398;DHT22;10358;49.590;11.030;2024-01-15T05:36:00;-1.60;99.90
20398;DHT22;10358;49.590;11.030;2024-01-15T05:38:25;-1.50;99.90
20398;DHT22;10358;49.590;11.030;2024-01-15T05:40:51;-1.50;99.90
20398;DHT22;10358;49.590;11.030;2024-01-15T05:43:17;-1.50;99.90
20398;DHT22;10358;49.590;11.030;2024-01-15T05:45:43;-1.60;99.90
20398;DHT22;10358;49.590;11.030;2024-01-15T05:48:10;-1.50;99.90
20398;DHT22;10358;49.590;11.030;2024-01-15T05:50:35;-1.50;99.90
20398;DHT22;10358;49.590;11.030;2024-01-15T05:53:01;-1.50;99.90
20398;DHT22;10358;49.590;11.030;2024-01-15T05:55:27;-1.50;99.90
20398;DHT22;10358;49.590;11.030;2024-01-15T05:57:53;-1.50;99.90
20398;DHT22;10358;49.590;11.030;2024-01-15T06:00:19;-1.50;99.90
20398;DHT22;10358;49.590;11.030;2024-01-15T06:02:44;-1.50;99.90
20398;DHT22;10358;49.590;11.030;2024-01-15T06:05:10;-1.50;99.90
20398;DHT22;10358;49.590;11.030;2024-01-15T06:07:35;-1.50;99.90
20398;DHT22;10358;49.590;11.030;2024-01-15T06:10:02;-1.60;99.90
20398;DHT22;10358;49.590;11.030;2024-01-15T06:12:28;-1.60;99.90
20398;DHT22;10358;49.590;11.030;2024-01-15T06:14:53;-1.60;99.90
20398;DHT22;10358;49.590;11.030;2024-01-15T06:17:19;-1.60;99.90
20398;DHT22;10358;49.590;11.030;2024-01-15T06:19:45;-1.60;99.90
20398;DHT22;10358;49.590;11.030;2024-01-15T06:22:10;-1.60;99.90
20398;DHT22;10358;49.590;11.030;2024-01-15T06:24:36;-1.70;99.90
20398;DHT22;10358;49.590;11.030;2024-01-15T06:27:01;-1.70;99.90
20398;DHT22;10358;49.590;11.030;2024-01-15T06:29:27;-1.70;99.90
20398;DHT22;10358;49.590;11.030;2024-01-15T06:31:53;-1.70;99.90
20398;DHT22;10358;49.590;11.030;2024-01-15T06:34:19;-1.70;99.90
20398;DHT22;10358;49.590;11.030;2024-01-15T06:36:44;-1.70;99.90
20398;DHT22;10358;49.590;11.030;2024-01-15T06:39:10;-1.60;99.90
20398;DHT22;10358;49.590;11.030;2024-01-15T06:41:36;-1.70;99.90
20398;DHT22;10358;49.590;11.030;2024-01-15T06:44:11;-1.70;99.90
20398;DHT22;10358;49.590;11.030;2024-01-15T06:46:41;-1.70;99.90
20398;DHT22;10358;49.590;11.030;2024-01-15T06:49:07;-1.70;99.90
20398;DHT22;10358;49.590;11.030;2024-01-15T06:51:32;-1.70;99.90
20398;DHT22;10358;49.590;11.030;2024-01-15T06:53:58;-1.60;99.90
20398;DHT22;10358;49.590;11.030;2024-01-15T06:56:23;-1.60;99.90
20398;DHT22;10358;49.590;11.030;2024-01-15T06:58:49;-1.70;99.90
20398;DHT22;10358;49.590;11.030;2024-01-15T07:01:14;-1.60;99.90
20398;DHT22;10358;49.590;11.030;2024-01-15T07:03:41;-1.60;99.90
20398;DHT22;10358;49.590;11.030;2024-01-15T07:06:06;-1.60;99.90
20398;DHT22;10358;49.590;11.030;2024-01-15T07:08:32;-1.60;99.90
20398;DHT22;10358;49.590;11.030;2024-01-15T07:10:57;-1.60;99.90
20398;DHT22;10358;49.590;11.030;2024-01-15T07:13:23;-1.60;99.90
20398;DHT22;10358;49.590;11.030;2024-01-15T07:15:49;-1.60;99.90
20398;DHT22;10358;49.590;11.030;2024-01-15T07:18:14;-1.60;99.90
20398;DHT22;10358;49.590;11.030;2024-01-15T07:20:40;-1.60;99.90
20398;DHT22;10358;49.590;11.030;2024-01-15T07:23:05;-1.60;99.90
20398;DHT22;10358;49.590;11.030;2024-01-15T07:25:32;-1.60;99.90
20398;DHT22;10358;49.590;11.030;2024-01-15T07:27:58;-1.60;99.90
20398;DHT22;10358;49.590;11.030;2024-01-15T07:30:23;-1.60;99.90
20398;DHT22;10358;49.590;11.030;2024-01-15T07:32:49;-1.60;99.90
20398;DHT22;10358;49.590;11.030;2024-01-15T07:35:14;-1.50;99.90
20398;DHT22;10358;49.590;11.030;2024-01-15T07:37:41;-1.50;99.90
20398;DHT22;10358;49.590;11.030;2024-01-15T07:40:07;-1.50;99.90
20398;DHT22;10358;49.590;11.030;2024-01-15T07:42:34;-1.50;99.90
20398;DHT22;10358;49.590;11.030;2024-01-15T07:45:00;-1.50;99.90
20398;DHT22;10358;49.590;11.030;2024-01-15T07:47:26;-1.50;99.90
20398;DHT22;10358;49.590;11.030;2024-01-15T07:49:52;-1.50;99.90
20398;DHT22;10358;49.590;11.030;2024-01-15T07:52:18;-1.40;99.90
20398;DHT22;10358;49.590;11.030;2024-01-15T07:54:43;-1.40;99.90
20398;DHT22;10358;49.590;11.030;2024-01-15T07:57:10;-1.30;99.90
20398;DHT22;10358;49.590;11.030;2024-01-15T07:59:35;-1.30;99.90
20398;DHT22;10358;49.590;11.030;2024-01-15T08:02:01;-1.30;99.90
20398;DHT22;10358;49.590;11.030;2024-01-15T08:04:27;-1.30;99.90
20398;DHT22;10358;49.590;11.030;2024-01-15T08:06:52;-1.30;99.90
20398;DHT22;10358;49.590;11.030;2024-01-15T08:09:18;-1.30;99.90
20398;DHT22;10358;49.590;11.030;2024-01-15T08:11:44;-1.30;99.90
20398;DHT22;10358;49.590;11.030;2024-01-15T08:14:10;-1.30;99.90
20398;DHT22;10358;49.590;11.030;2024-01-15T08:16:36;-1.30;99.90
20398;DHT22;10358;49.590;11.030;2024-01-15T08:19:02;-1.40;99.90
20398;DHT22;10358;49.590;11.030;2024-01-15T08:21:28;-1.30;99.90
20398;DHT22;10358;49.590;11.030;2024-01-15T08:24:00;-1.30;99.90
20398;DHT22;10358;49.590;11.030;2024-01-15T08:26:27;-1.30;99.90
20398;DHT22;10358;49.590;11.030;2024-01-15T08:28:53;-1.30;99.90
20398;DHT22;10358;49.590;11.030;2024-01-15T08:31:18;-1.30;99.90
20398;DHT22;10358;49.590;11.030;2024-01-15T08:33:44;-1.30;99.90
20398;DHT22;10358;49.590;11.030;2024-01-15T08:36:10;-1.20;99.90
20398;DHT22;10358;49.590;11.030;2024-01-15T08:38:36;-1.20;99.90
20398;DHT22;10358;49.590;11.030;2024-01-15T08:41:01;-1.20;99.90
20398;DHT22;10358;49.590;11.030;2024-01-15T08:43:27;-1.10;99.90
20398;DHT22;10358;49.590;11.030;2024-01-15T08:45:56;-1.10;99.90
20398;DHT22;10358;49.590;11.030;2024-01-15T08:48:22;-1.00;99.90
20398;DHT22;10358;49.590;11.030;2024-01-15T08:50:48;-1.00;99.90
20398;DHT22;10358;49.590;11.030;2024-01-15T08:53:14;-1.10;99.90
20398;DHT22;10358;49.590;11.030;2024-01-15T08:55:40;-1.00;99.90
20398;DHT22;10358;49.590;11.030;2024-01-15T08:58:07;-1.00;99.90
20398;DHT22;10358;49.590;11.030;2024-01-15T09:00:33;-0.90;99.90
20398;DHT22;10358;49.590;11.030;2024-01-15T09:02:59;-0.90;99.90
20398;DHT22;10358;49.590;11.030;2024-01-15T09:05:25;-0.90;99.90
20398;DHT22;10358;49.590;11.030;2024-01-15T09:07:50;-0.90;99.90
20398;DHT22;10358;49.590;11.030;2024-01-15T09:10:17;-0.90;99.90
20398;DHT22;10358;49.590;11.030;2024-01-15T09:12:43;-0.80;99.90
20398;DHT22;10358;49.590;11.030;2024-01-15T09:15:09;-0.80;99.90
20398;DHT22;10358;49.590;11.030;2024-01-15T09:17:34;-0.80;99.90
20398;DHT22;10358;49.590;11.030;2024-01-15T09:20:00;-0.70;99.90
20398;DHT22;10358;49.590;11.030;2024-01-15T09:22:26;-0.60;99.90
20398;DHT22;10358;49.590;11.030;2024-01-15T09:24:52;-0.50;99.90
20398;DHT22;10358;49.590;11.030;2024-01-15T09:27:17;-0.50;99.90
20398;DHT22;10358;49.590;11.030;2024-01-15T09:29:43;-0.40;99.90
20398;DHT22;10358;49.590;11.030;2024-01-15T09:32:11;-0.30;99.90
20398;DHT22;10358;49.590;11.030;2024-01-15T09:34:36;-0.30;99.90
20398;DHT22;10358;49.590;11.030;2024-01-15T09:37:02;-0.40;99.90
20398;DHT22;10358;49.590;11.030;2024-01-15T09:39:28;-0.30;99.90
20398;DHT22;10358;49.590;11.030;2024-01-15T09:41:54;-0.40;99.90
20398;DHT22;10358;49.590;11.030;2024-01-15T09:44:20;-0.30;99.90
20398;DHT22;10358;49.590;11.030;2024-01-15T09:46:46;-0.30;99.90
20398;DHT22;10358;49.590;11.030;2024-01-15T09:49:15;-0.20;99.90
20398;DHT22;10358;49.590;11.030;2024-01-15T09:51:41;-0.20;99.90
20398;DHT22;10358;49.590;11.030;2024-01-15T09:54:07;-0.20;99.90
20398;DHT22;10358;49.590;11.030;2024-01-15T09:56:34;-0.20;99.90
20398;DHT22;10358;49.590;11.030;2024-01-15T09:59:00;-0.10;99.90
20398;DHT22;10358;49.590;11.030;2024-01-15T10:01:26;-0.10;99.90
20398;DHT22;10358;49.590;11.030;2024-01-15T10:03:52;-0.10;99.90
20398;DHT22;10358;49.590;11.030;2024-01-15T10:06:18;-0.20;99.90
20398;DHT22;10358;49.590;11.030;2024-01-15T10:08:50;-0.30;99.90
20398;DHT22;10358;49.590;11.030;2024-01-15T10:11:16;-0.30;99.90
20398;DHT22;10358;49.590;11.030;2024-01-15T10:13:48;-0.30;99.90
20398;DHT22;10358;49.590;11.030;2024-01-15T10:16:21;-0.20;99.90
20398;DHT22;10358;49.590;11.030;2024-01-15T10:18:47;-0.20;99.90
20398;DHT22;10358;49.590;11.030;2024-01-15T10:21:13;-0.30;99.90
20398;DHT22;10358;49.590;11.030;2024-01-15T10:23:39;-0.20;99.90
20398;DHT22;10358;49.590;11.030;2024-01-15T10:26:05;-0.20;99.90
20398;DHT22;10358;49.590;11.030;2024-01-15T10:28:31;-0.20;99.90
20398;DHT22;10358;49.590;11.030;2024-01-15T10:30:58;-0.20;99.90
20398;DHT22;10358;49.590;11.030;2024-01-15T10:33:27;-0.10;99.90
20398;DHT22;10358;49.590;11.030;2024-01-15T10:35:58;-0.10;99.90
20398;DHT22;10358;49.590;11.030;2024-01-15T10:38:25;-0.10;99.90
20398;DHT22;10358;49.590;11.030;2024-01-15T10:40:54;-0.10;99.90
20398;DHT22;10358;49.590;11.030;2024-01-15T10:43:21;-0.10;99.90
20398;DHT22;10358;49.590;11.030;2024-01-15T10:45:48;-0.10;99.90
20398;DHT22;10358;49.590;11.030;2024-01-15T10:48:14;-0.10;99.90
20398;DHT22;10358;49.590;11.030;2024-01-15T10:50:41;0.00;99.90
20398;DHT22;10358;49.590;11.030;2024-01-15T10:53:08;0.00;99.90
20398;DHT22;10358;49.590;11.030;2024-01-15T10:55:35;0.00;99.90
20398;DHT22;10358;49.590;11.030;2024-01-15T10:58:03;0.00;99.90
20398;DHT22;10358;49.590;11.030;2024-01-15T11:00:29;0.00;99.90
20398;DHT22;10358;49.590;11.030;2024-01-15T11:02:56;-0.10;99.90
20398;DHT22;10358;49.590;11.030;2024-01-15T11:05:22;-0.10;99.90
20398;DHT22;10358;49.590;11.030;2024-01-15T11:07:54;-0.10;99.90
20398;DHT22;10358;49.590;11.030;2024-01-15T11:10:45;-0.10;99.90
20398;DHT22;10358;49.590;11.030;2024-01-15T11:13:22;0.00;99.90
20398;DHT22;10358;49.590;11.030;2024-01-15T11:16:07;0.00;99.90
20398;DHT22;10358;49.590;11.030;2024-01-15T11:18:36;0.10;99.90
20398;DHT22;10358;49.590;11.030;2024-01-15T11:26:45;0.10;99.90
20398;DHT22;10358;49.590;11.030;2024-01-15T11:29:37;0.20;99.90
20398;DHT22;10358;49.590;11.030;2024-01-15T11:32:09;0.20;99.90
20398;DHT22;10358;49.590;11.030;2024-01-15T11:34:55;0.20;99.90
20398;DHT22;10358;49.590;11.030;2024-01-15T11:37:25;0.30;99.90
20398;DHT22;10358;49.590;11.030;2024-01-15T11:39:51;0.30;99.90
20398;DHT22;10358;49.590;11.030;2024-01-15T11:42:20;0.20;99.90
20398;DHT22;10358;49.590;11.030;2024-01-15T11:44:45;0.20;99.90
20398;DHT22;10358;49.590;11.030;2024-01-15T11:47:12;0.20;99.90
20398;DHT22;10358;49.590;11.030;2024-01-15T11:50:00;0.10;99.90
20398;DHT22;10358;49.590;11.030;2024-01-15T11:52:33;0.10;99.90
20398;DHT22;10358;49.590;11.030;2024-01-15T11:55:26;0.10;99.90
20398;DHT22;10358;49.590;11.030;2024-01-15T11:57:53;0.10;99.90
20398;DHT22;10358;49.590;11.030;2024-01-15T12:00:22;0.10;99.90
20398;DHT22;10358;49.590;11.030;2024-01-15T12:02:49;0.10;99.90
20398;DHT22;10358;49.590;11.030;2024-01-15T12:05:18;0.10;99.90
20398;DHT22;10358;49.590;11.030;2024-01-15T12:07:46;0.20;99.90
20398;DHT22;10358;49.590;11.030;2024-01-15T12:10:13;0.20;99.90
20398;DHT22;10358;49.590;11.030;2024-01-15T12:12:59;0.20;99.90
20398;DHT22;10358;49.590;11.030;2024-01-15T12:15:27;0.30;99.90
20398;DHT22;10358;49.590;11.030;2024-01-15T12:17:59;0.30;99.90
20398;DHT22;10358;49.590;11.030;2024-01-15T12:20:31;0.30;99.90
20398;DHT22;10358;49.590;11.030;2024-01-15T12:22:57;0.30;99.90
20398;DHT22;10358;49.590;11.030;2024-01-15T12:25:25;0.30;99.90
20398;DHT22;10358;49.590;11.030;2024-01-15T12:27:52;0.30;99.90
20398;DHT22;10358;49.590;11.030;2024-01-15T12:30:18;0.30;99.90
20398;DHT22;10358;49.590;11.030;2024-01-15T12:32:44;0.30;99.90
20398;DHT22;10358;49.590;11.030;2024-01-15T12:35:10;0.30;99.90
20398;DHT22;10358;49.590;11.030;2024-01-15T12:37:37;0.40;99.90
20398;DHT22;10358;49.590;11.030;2024-01-15T12:40:05;0.40;99.90
20398;DHT22;10358;49.590;11.030;2024-01-15T12:42:41;0.40;99.90
20398;DHT22;10358;49.590;11.030;2024-01-15T12:45:09;0.40;99.90
20398;DHT22;10358;49.590;11.030;2024-01-15T12:47:34;0.40;99.90
20398;DHT22;10358;49.590;11.030;2024-01-15T12:50:01;0.40;99.90
20398;DHT22;10358;49.590;11.030;2024-01-15T12:52:28;0.40;99.90
20398;DHT22;10358;49.590;11.030;2024-01-15T12:54:55;0.40;99.90
20398;DHT22;10358;49.590;11.030;2024-01-15T12:57:21;0.40;99.90
20398;DHT22;10358;49.590;11.030;2024-01-15T12:59:47;0.40;99.90
20398;DHT22;10358;49.590;11.030;2024-01-15T13:02:13;0.50;99.90
20398;DHT22;10358;49.590;11.030;2024-01-15T13:04:39;0.50;99.90
20398;DHT22;10358;49.590;11.030;2024-01-15T13:07:08;0.50;99.90
20398;DHT22;10358;49.590;11.030;2024-01-15T13:09:34;0.50;99.90
20398;DHT22;10358;49.590;11.030;2024-01-15T13:12:04;0.40;99.90
20398;DHT22;10358;49.590;11.030;2024-01-15T13:14:31;0.40;99.90
20398;DHT22;10358;49.590;11.030;2024-01-15T13:16:56;0.30;99.90
20398;DHT22;10358;49.590;11.030;2024-01-15T13:19:22;0.30;99.90
20398;DHT22;10358;49.590;11.030;2024-01-15T13:21:48;0.30;99.90
20398;DHT22;10358;49.590;11.030;2024-01-15T13:24:15;0.30;99.90
20398;DHT22;10358;49.590;11.030;2024-01-15T13:26:40;0.30;99.90
20398;DHT22;10358;49.590;11.030;2024-01-15T13:29:06;0.20;99.90
20398;DHT22;10358;49.590;11.030;2024-01-15T13:31:32;0.20;99.90
20398;DHT22;10358;49.590;11.030;2024-01-15T13:33:58;0.20;99.90
20398;DHT22;10358;49.590;11.030;2024-01-15T13:36:27;0.20;99.90
20398;DHT22;10358;49.590;11.030;2024-01-15T13:38:53;0.20;99.90
20398;DHT22;10358;49.590;11.030;2024-01-15T13:41:22;0.20;99.90
20398;DHT22;10358;49.590;11.030;2024-01-15T13:43:55;0.10;99.90
20398;DHT22;10358;49.590;11.030;2024-01-15T13:46:24;0.00;99.90
20398;DHT22;10358;49.590;11.030;2024-01-15T13:48:49;0.00;99.90
20398;DHT22;10358;49.590;11.030;2024-01-15T13:51:15;0.00;99.90
20398;DHT22;10358;49.590;11.030;2024-01-15T13:53:40;-0.10;99.90
20398;DHT22;10358;49.590;11.030;2024-01-15T13:56:07;-0.10;99.90
20398;DHT22;10358;49.590;11.030;2024-01-15T13:58:33;-0.10;99.90
20398;DHT22;10358;49.590;11.030;2024-01-15T14:01:00;-0.10;99.90
20398;DHT22;10358;49.590;11.030;2024-01-15T14:03:25;-0.10;99.90
20398;DHT22;10358;49.590;11.030;2024-01-15T14:05:52;-0.10;99.90
20398;DHT22;10358;49.590;11.030;2024-01-15T14:08:17;-0.10;99.90
20398;DHT22;10358;49.590;11.030;2024-01-15T14:10:43;-0.20;99.90
20398;DHT22;10358;49.590;11.030;2024-01-15T14:13:08;-0.10;99.90
20398;DHT22;10358;49.590;11.030;2024-01-15T14:15:34;-0.10;99.90
20398;DHT22;10358;49.590;11.030;2024-01-15T14:18:00;-0.10;99.90
20398;DHT22;10358;49.590;11.030;2024-01-15T14:20:26;-0.10;99.90
20398;DHT22;10358;49.590;11.030;2024-01-15T14:22:53;0.00;99.90
20398;DHT22;10358;49.590;11.030;2024-01-15T14:25:18;0.00;99.90
20398;DHT22;10358;49.590;11.030;2024-01-15T14:27:44;0.00;99.90
20398;DHT22;10358;49.590;11.030;2024-01-15T14:30:10;0.00;99.90
20398;DHT22;10358;49.590;11.030;2024-01-15T14:32:35;0.00;99.90
20398;DHT22;10358;49.590;11.030;2024-01-15T14:35:01;0.00;99.90
20398;DHT22;10358;49.590;11.030;2024-01-15T14:37:28;0.10;99.90
20398;DHT22;10358;49.590;11.030;2024-01-15T14:39:54;0.10;99.90
20398;DHT22;10358;49.590;11.030;2024-01-15T14:42:19;0.10;99.90
20398;DHT22;10358;49.590;11.030;2024-01-15T14:44:45;0.10;99.90
20398;DHT22;10358;49.590;11.030;2024-01-15T14:47:10;0.00;99.90
20398;DHT22;10358;49.590;11.030;2024-01-15T14:49:36;0.00;99.90
20398;DHT22;10358;49.590;11.030;2024-01-15T14:52:02;0.00;99.90
20398;DHT22;10358;49.590;11.030;2024-01-15T14:54:28;0.00;99.90
20398;DHT22;10358;49.590;11.030;2024-01-15T14:56:53;0.00;99.90
20398;DHT22;10358;49.590;11.030;2024-01-15T14:59:19;0.00;99.90
20398;DHT22;10358;49.590;11.030;2024-01-15T15:01:45;0.00;99.90
20398;DHT22;10358;49.590;11.030;2024-01-15T15:04:11;0.00;99.90
20398;DHT22;10358;49.590;11.030;2024-01-15T15:06:37;-0.10;99.90
20398;DHT22;10358;49.590;11.030;2024-01-15T15:09:03;-0.10;99.90
20398;DHT22;10358;49.590;11.030;2024-01-15T15:11:34;-0.10;99.90
20398;DHT22;10358;49.590;11.030;2024-01-15T15:14:00;-0.20;99.90
20398;DHT22;10358;49.590;11.030;2024-01-15T15:16:26;-0.10;99.90
20398;DHT22;10358;49.590;11.030;2024-01-15T15:18:52;-0.20;99.90
20398;DHT22;10358;49.590;11.030;2024-01-15T15:21:18;-0.20;99.90